sensor_id;sensor_type;location;lat;lon;timestamp;P1;durP1;ratioP1;P2;durP2;ratioP2
46322;SDS011;32044;52.386;13.278;2022-07-22T00:00:18;9.80;;;7.13;;
46322;SDS011;32044;52.386;13.278;2022-07-22T00:02:44;8.10;;;7.30;;
46322;SDS011;32044;52.386;13.278;2022-07-22T00:05:09;9.93;;;7.80;;
46322;SDS011;32044;52.386;13.278;2022-07-22T00:07:36;8.20;;;7.40;;
46322;SDS011;32044;52.386;13.278;2022-07-22T00:10:02;8.60;;;7.70;;
46322;SDS011;32044;52.386;13.278;2022-07-22T00:12:28;9.40;;;8.50;;
46322;SDS011;32044;52.386;13.278;2022-07-22T00:14:54;10.93;;;8.55;;
46322;SDS011;32044;52.386;13.278;2022-07-22T00:17:19;9.38;;;8.50;;
46322;SDS011;32044;52.386;13.278;2022-07-22T00:19:45;10.30;;;9.02;;
46322;SDS011;32044;52.386;13.278;2022-07-22T00:22:10;9.77;;;8.57;;
46322;SDS011;32044;52.386;13.278;2022-07-22T00:24:35;10.32;;;9.32;;
46322;SDS011;32044;52.386;13.278;2022-07-22T00:27:01;10.25;;;8.65;;
46322;SDS011;32044;52.386;13.278;2022-07-22T00:29:26;8.82;;;7.93;;
46322;SDS011;32044;52.386;13.278;2022-07-22T00:31:51;9.80;;;8.80;;
46322;SDS011;32044;52.386;13.278;2022-07-22T00:34:16;9.55;;;8.55;;
46322;SDS011;32044;52.386;13.278;2022-07-22T00:36:42;8.70;;;7.80;;
46322;SDS011;32044;52.386;13.278;2022-07-22T00:39:07;9.38;;;8.23;;
46322;SDS011;32044;52.386;13.278;2022-07-22T00:41:32;9.15;;;8.07;;
46322;SDS011;32044;52.386;13.278;2022-07-22T00:43:59;8.50;;;7.75;;
46322;SDS011;32044;52.386;13.278;2022-07-22T00:46:31;9.00;;;7.90;;
46322;SDS011;32044;52.386;13.278;2022-07-22T00:48:57;7.90;;;7.20;;
46322;SDS011;32044;52.386;13.278;2022-07-22T00:51:24;8.70;;;6.88;;
46322;SDS011;32044;52.386;13.278;2022-07-22T00:53:50;10.60;;;6.97;;
46322;SDS011;32044;52.386;13.278;2022-07-22T00:56:16;7.70;;;6.82;;
46322;SDS011;32044;52.386;13.278;2022-07-22T00:58:41;7.25;;;6.65;;
46322;SDS011;32044;52.386;13.278;2022-07-22T01:01:07;7.63;;;6.72;;
46322;SDS011;32044;52.386;13.278;2022-07-22T01:03:32;7.38;;;6.65;;
46322;SDS011;32044;52.386;13.278;2022-07-22T01:05:58;7.70;;;6.72;;
46322;SDS011;32044;52.386;13.278;2022-07-22T01:08:23;6.72;;;6.13;;
46322;SDS011;32044;52.386;13.278;2022-07-22T01:10:49;8.73;;;6.30;;
46322;SDS011;32044;52.386;13.278;2022-07-22T01:13:14;7.15;;;5.95;;
46322;SDS011;32044;52.386;13.278;2022-07-22T01:15:40;6.60;;;6.00;;
46322;SDS011;32044;52.386;13.278;2022-07-22T01:18:05;6.60;;;6.00;;
46322;SDS011;32044;52.386;13.278;2022-07-22T01:20:30;8.00;;;6.40;;
46322;SDS011;32044;52.386;13.278;2022-07-22T01:22:56;6.82;;;6.15;;
46322;SDS011;32044;52.386;13.278;2022-07-22T01:25:21;7.15;;;6.47;;
46322;SDS011;32044;52.386;13.278;2022-07-22T01:27:47;6.82;;;6.22;;
46322;SDS011;32044;52.386;13.278;2022-07-22T01:30:12;6.57;;;5.97;;
46322;SDS011;32044;52.386;13.278;2022-07-22T01:32:37;7.10;;;6.40;;
46322;SDS011;32044;52.386;13.278;2022-07-22T01:35:02;6.57;;;5.97;;
46322;SDS011;32044;52.386;13.278;2022-07-22T01:37:29;7.45;;;5.75;;
46322;SDS011;32044;52.386;13.278;2022-07-22T01:39:54;6.78;;;6.13;;
46322;SDS011;32044;52.386;13.278;2022-07-22T01:42:20;6.70;;;6.10;;
46322;SDS011;32044;52.386;13.278;2022-07-22T01:44:45;6.85;;;6.35;;
46322;SDS011;32044;52.386;13.278;2022-07-22T01:50:16;6.40;;;5.80;;
46322;SDS011;32044;52.386;13.278;2022-07-22T01:52:41;6.80;;;5.93;;
46322;SDS011;32044;52.386;13.278;2022-07-22T01:55:08;6.80;;;6.20;;
46322;SDS011;32044;52.386;13.278;2022-07-22T01:57:33;6.93;;;6.00;;
46322;SDS011;32044;52.386;13.278;2022-07-22T02:00:00;7.30;;;6.60;;
46322;SDS011;32044;52.386;13.278;2022-07-22T02:02:25;6.80;;;6.10;;
46322;SDS011;32044;52.386;13.278;2022-07-22T02:04:51;6.75;;;6.13;;
46322;SDS011;32044;52.386;13.278;2022-07-22T02:07:16;8.68;;;7.22;;
46322;SDS011;32044;52.386;13.278;2022-07-22T02:09:41;7.32;;;6.60;;
46322;SDS011;32044;52.386;13.278;2022-07-22T02:12:07;7.82;;;7.13;;
46322;SDS011;32044;52.386;13.278;2022-07-22T02:14:33;9.68;;;6.78;;
46322;SDS011;32044;52.386;13.278;2022-07-22T02:16:58;8.30;;;7.47;;
46322;SDS011;32044;52.386;13.278;2022-07-22T02:19:23;9.50;;;7.45;;
46322;SDS011;32044;52.386;13.278;2022-07-22T02:21:49;7.90;;;7.10;;
46322;SDS011;32044;52.386;13.278;2022-07-22T02:24:14;8.20;;;7.47;;
46322;SDS011;32044;52.386;13.278;2022-07-22T02:26:39;9.13;;;8.00;;
46322;SDS011;32044;52.386;13.278;2022-07-22T02:29:05;9.35;;;8.43;;
46322;SDS011;32044;52.386;13.278;2022-07-22T02:31:30;9.40;;;8.45;;
46322;SDS011;32044;52.386;13.278;2022-07-22T02:33:56;9.50;;;8.45;;
46322;SDS011;32044;52.386;13.278;2022-07-22T02:36:21;9.07;;;8.23;;
46322;SDS011;32044;52.386;13.278;2022-07-22T02:38:46;8.73;;;7.85;;
46322;SDS011;32044;52.386;13.278;2022-07-22T02:41:12;10.25;;;8.27;;
46322;SDS011;32044;52.386;13.278;2022-07-22T02:43:37;9.63;;;8.73;;
46322;SDS011;32044;52.386;13.278;2022-07-22T02:46:02;9.43;;;8.43;;
46322;SDS011;32044;52.386;13.278;2022-07-22T02:48:27;9.73;;;8.82;;
46322;SDS011;32044;52.386;13.278;2022-07-22T02:50:53;10.55;;;9.00;;
46322;SDS011;32044;52.386;13.278;2022-07-22T02:53:18;10.07;;;9.07;;
46322;SDS011;32044;52.386;13.278;2022-07-22T02:55:43;9.82;;;8.88;;
46322;SDS011;32044;52.386;13.278;2022-07-22T02:58:09;11.25;;;10.07;;
46322;SDS011;32044;52.386;13.278;2022-07-22T03:00:34;11.93;;;9.00;;
46322;SDS011;32044;52.386;13.278;2022-07-22T03:03:02;9.63;;;8.73;;
46322;SDS011;32044;52.386;13.278;2022-07-22T03:05:28;12.13;;;9.73;;
46322;SDS011;32044;52.386;13.278;2022-07-22T03:07:53;11.05;;;9.23;;
46322;SDS011;32044;52.386;13.278;2022-07-22T03:10:18;11.15;;;9.27;;
46322;SDS011;32044;52.386;13.278;2022-07-22T03:12:44;10.98;;;9.68;;
46322;SDS011;32044;52.386;13.278;2022-07-22T03:15:09;10.27;;;9.25;;
46322;SDS011;32044;52.386;13.278;2022-07-22T03:17:35;10.38;;;9.45;;
46322;SDS011;32044;52.386;13.278;2022-07-22T03:20:01;11.52;;;9.82;;
46322;SDS011;32044;52.386;13.278;2022-07-22T03:22:30;11.55;;;10.30;;
46322;SDS011;32044;52.386;13.278;2022-07-22T03:24:55;14.23;;;10.98;;
46322;SDS011;32044;52.386;13.278;2022-07-22T03:27:21;10.50;;;9.20;;
46322;SDS011;32044;52.386;13.278;2022-07-22T03:29:46;11.73;;;10.52;;
46322;SDS011;32044;52.386;13.278;2022-07-22T03:32:11;12.30;;;9.40;;
46322;SDS011;32044;52.386;13.278;2022-07-22T03:34:37;11.25;;;10.18;;
46322;SDS011;32044;52.386;13.278;2022-07-22T03:37:02;11.48;;;10.38;;
46322;SDS011;32044;52.386;13.278;2022-07-22T03:39:27;11.05;;;9.82;;
46322;SDS011;32044;52.386;13.278;2022-07-22T03:41:53;9.45;;;8.55;;
46322;SDS011;32044;52.386;13.278;2022-07-22T03:44:18;10.25;;;9.18;;
46322;SDS011;32044;52.386;13.278;2022-07-22T03:46:43;10.80;;;9.60;;
46322;SDS011;32044;52.386;13.278;2022-07-22T03:49:09;11.13;;;9.43;;
46322;SDS011;32044;52.386;13.278;2022-07-22T03:51:34;11.48;;;10.30;;
46322;SDS011;32044;52.386;13.278;2022-07-22T03:53:59;10.75;;;9.63;;
46322;SDS011;32044;52.386;13.278;2022-07-22T03:56:24;9.40;;;8.50;;
46322;SDS011;32044;52.386;13.278;2022-07-22T03:58:50;11.25;;;10.13;;
46322;SDS011;32044;52.386;13.278;2022-07-22T04:01:15;11.45;;;10.35;;
46322;SDS011;32044;52.386;13.278;2022-07-22T04:03:40;10.75;;;9.65;;
46322;SDS011;32044;52.386;13.278;2022-07-22T04:06:06;10.50;;;9.45;;
46322;SDS011;32044;52.386;13.278;2022-07-22T04:08:31;11.05;;;10.13;;
46322;SDS011;32044;52.386;13.278;2022-07-22T04:10:56;10.75;;;9.18;;
46322;SDS011;32044;52.386;13.278;2022-07-22T04:13:22;10.95;;;9.88;;
46322;SDS011;32044;52.386;13.278;2022-07-22T04:15:47;10.50;;;9.40;;
46322;SDS011;32044;52.386;13.278;2022-07-22T04:18:12;14.60;;;11.13;;
46322;SDS011;32044;52.386;13.278;2022-07-22T04:20:38;10.75;;;9.75;;
46322;SDS011;32044;52.386;13.278;2022-07-22T04:23:03;11.98;;;10.70;;
46322;SDS011;32044;52.386;13.278;2022-07-22T04:25:28;10.32;;;9.35;;
46322;SDS011;32044;52.386;13.278;2022-07-22T04:27:53;10.85;;;9.68;;
46322;SDS011;32044;52.386;13.278;2022-07-22T04:30:19;13.68;;;10.57;;
46322;SDS011;32044;52.386;13.278;2022-07-22T04:32:44;12.27;;;10.68;;
46322;SDS011;32044;52.386;13.278;2022-07-22T04:35:10;12.75;;;11.00;;
46322;SDS011;32044;52.386;13.278;2022-07-22T04:37:35;13.23;;;11.93;;
46322;SDS011;32044;52.386;13.278;2022-07-22T04:40:00;12.45;;;11.15;;
46322;SDS011;32044;52.386;13.278;2022-07-22T04:42:25;12.80;;;11.35;;
46322;SDS011;32044;52.386;13.278;2022-07-22T04:44:51;14.52;;;12.07;;
46322;SDS011;32044;52.386;13.278;2022-07-22T04:47:16;14.45;;;12.88;;
46322;SDS011;32044;52.386;13.278;2022-07-22T04:49:41;14.63;;;13.13;;
46322;SDS011;32044;52.386;13.278;2022-07-22T04:52:08;16.88;;;13.38;;
46322;SDS011;32044;52.386;13.278;2022-07-22T04:54:34;14.95;;;13.10;;
46322;SDS011;32044;52.386;13.278;2022-07-22T04:57:00;15.93;;;13.13;;
46322;SDS011;32044;52.386;13.278;2022-07-22T04:59:25;12.80;;;11.55;;
46322;SDS011;32044;52.386;13.278;2022-07-22T05:01:50;14.63;;;13.05;;
46322;SDS011;32044;52.386;13.278;2022-07-22T05:04:16;12.10;;;10.85;;
46322;SDS011;32044;52.386;13.278;2022-07-22T05:06:41;12.95;;;11.60;;
46322;SDS011;32044;52.386;13.278;2022-07-22T05:09:06;13.23;;;11.85;;
46322;SDS011;32044;52.386;13.278;2022-07-22T05:11:32;13.38;;;12.00;;
46322;SDS011;32044;52.386;13.278;2022-07-22T05:13:57;14.57;;;12.75;;
46322;SDS011;32044;52.386;13.278;2022-07-22T05:16:22;13.75;;;12.10;;
46322;SDS011;32044;52.386;13.278;2022-07-22T05:18:48;13.75;;;11.18;;
46322;SDS011;32044;52.386;13.278;2022-07-22T05:21:13;12.57;;;11.25;;
46322;SDS011;32044;52.386;13.278;2022-07-22T05:23:38;14.15;;;12.40;;
46322;SDS011;32044;52.386;13.278;2022-07-22T05:26:04;14.48;;;12.95;;
46322;SDS011;32044;52.386;13.278;2022-07-22T05:28:29;14.98;;;12.82;;
46322;SDS011;32044;52.386;13.278;2022-07-22T05:30:55;14.20;;;12.80;;
46322;SDS011;32044;52.386;13.278;2022-07-22T05:33:20;16.25;;;14.50;;
46322;SDS011;32044;52.386;13.278;2022-07-22T05:35:45;15.25;;;13.75;;
46322;SDS011;32044;52.386;13.278;2022-07-22T05:38:10;13.60;;;12.23;;
46322;SDS011;32044;52.386;13.278;2022-07-22T05:40:36;13.52;;;12.10;;
46322;SDS011;32044;52.386;13.278;2022-07-22T05:43:01;13.80;;;12.38;;
46322;SDS011;32044;52.386;13.278;2022-07-22T05:45:26;14.38;;;12.80;;
46322;SDS011;32044;52.386;13.278;2022-07-22T05:47:52;12.88;;;11.43;;
46322;SDS011;32044;52.386;13.278;2022-07-22T05:50:17;13.63;;;11.82;;
46322;SDS011;32044;52.386;13.278;2022-07-22T05:52:42;14.18;;;12.18;;
46322;SDS011;32044;52.386;13.278;2022-07-22T05:55:07;11.52;;;10.07;;
46322;SDS011;32044;52.386;13.278;2022-07-22T05:57:33;13.50;;;12.20;;
46322;SDS011;32044;52.386;13.278;2022-07-22T05:59:58;14.55;;;11.52;;
46322;SDS011;32044;52.386;13.278;2022-07-22T06:02:23;11.85;;;10.63;;
46322;SDS011;32044;52.386;13.278;2022-07-22T06:04:49;13.20;;;11.88;;
46322;SDS011;32044;52.386;13.278;2022-07-22T06:07:14;13.30;;;11.90;;
46322;SDS011;32044;52.386;13.278;2022-07-22T06:09:40;12.52;;;11.32;;
46322;SDS011;32044;52.386;13.278;2022-07-22T06:12:05;12.75;;;11.52;;
46322;SDS011;32044;52.386;13.278;2022-07-22T06:14:31;11.75;;;10.55;;
46322;SDS011;32044;52.386;13.278;2022-07-22T06:16:56;13.02;;;11.65;;
46322;SDS011;32044;52.386;13.278;2022-07-22T06:19:21;19.55;;;11.32;;
46322;SDS011;32044;52.386;13.278;2022-07-22T06:21:48;11.65;;;10.50;;
46322;SDS011;32044;52.386;13.278;2022-07-22T06:24:13;11.13;;;10.10;;
46322;SDS011;32044;52.386;13.278;2022-07-22T06:26:38;11.77;;;10.52;;
46322;SDS011;32044;52.386;13.278;2022-07-22T06:29:03;13.30;;;10.68;;
46322;SDS011;32044;52.386;13.278;2022-07-22T06:31:29;12.48;;;9.80;;
46322;SDS011;32044;52.386;13.278;2022-07-22T06:33:54;11.98;;;10.32;;
46322;SDS011;32044;52.386;13.278;2022-07-22T06:36:19;11.63;;;10.50;;
46322;SDS011;32044;52.386;13.278;2022-07-22T06:38:44;12.25;;;10.32;;
46322;SDS011;32044;52.386;13.278;2022-07-22T06:41:10;11.50;;;10.27;;
46322;SDS011;32044;52.386;13.278;2022-07-22T06:43:35;11.35;;;10.18;;
46322;SDS011;32044;52.386;13.278;2022-07-22T06:46:01;11.23;;;10.13;;
46322;SDS011;32044;52.386;13.278;2022-07-22T06:48:26;11.25;;;10.10;;
46322;SDS011;32044;52.386;13.278;2022-07-22T06:50:51;9.35;;;8.40;;
46322;SDS011;32044;52.386;13.278;2022-07-22T06:53:17;8.90;;;8.10;;
46322;SDS011;32044;52.386;13.278;2022-07-22T06:55:42;9.00;;;8.00;;
46322;SDS011;32044;52.386;13.278;2022-07-22T06:58:07;10.20;;;9.13;;
46322;SDS011;32044;52.386;13.278;2022-07-22T07:00:32;11.35;;;9.18;;
46322;SDS011;32044;52.386;13.278;2022-07-22T07:02:58;11.30;;;10.27;;
46322;SDS011;32044;52.386;13.278;2022-07-22T07:05:24;9.13;;;8.18;;
46322;SDS011;32044;52.386;13.278;2022-07-22T07:07:50;12.52;;;8.40;;
46322;SDS011;32044;52.386;13.278;2022-07-22T07:10:15;11.02;;;8.77;;
46322;SDS011;32044;52.386;13.278;2022-07-22T07:12:40;9.27;;;8.38;;
46322;SDS011;32044;52.386;13.278;2022-07-22T07:15:06;10.50;;;9.32;;
46322;SDS011;32044;52.386;13.278;2022-07-22T07:17:32;7.80;;;7.10;;
46322;SDS011;32044;52.386;13.278;2022-07-22T07:19:57;8.18;;;7.38;;
46322;SDS011;32044;52.386;13.278;2022-07-22T07:22:22;8.10;;;7.40;;
46322;SDS011;32044;52.386;13.278;2022-07-22T07:24:47;9.10;;;8.18;;
46322;SDS011;32044;52.386;13.278;2022-07-22T07:27:13;8.35;;;7.45;;
46322;SDS011;32044;52.386;13.278;2022-07-22T07:29:38;10.07;;;7.68;;
46322;SDS011;32044;52.386;13.278;2022-07-22T07:32:04;7.85;;;7.05;;
46322;SDS011;32044;52.386;13.278;2022-07-22T07:34:29;7.78;;;7.07;;
46322;SDS011;32044;52.386;13.278;2022-07-22T07:36:54;8.57;;;7.78;;
46322;SDS011;32044;52.386;13.278;2022-07-22T07:39:20;7.95;;;7.25;;
46322;SDS011;32044;52.386;13.278;2022-07-22T07:41:45;9.10;;;7.82;;
46322;SDS011;32044;52.386;13.278;2022-07-22T07:44:10;9.52;;;6.63;;
46322;SDS011;32044;52.386;13.278;2022-07-22T07:46:36;6.50;;;5.90;;
46322;SDS011;32044;52.386;13.278;2022-07-22T07:49:01;8.05;;;6.70;;
46322;SDS011;32044;52.386;13.278;2022-07-22T07:51:26;6.67;;;6.07;;
46322;SDS011;32044;52.386;13.278;2022-07-22T07:53:52;8.85;;;7.45;;
46322;SDS011;32044;52.386;13.278;2022-07-22T07:56:17;7.18;;;6.43;;
46322;SDS011;32044;52.386;13.278;2022-07-22T07:58:42;7.43;;;6.47;;
46322;SDS011;32044;52.386;13.278;2022-07-22T08:01:07;8.48;;;6.47;;
46322;SDS011;32044;52.386;13.278;2022-07-22T08:03:33;6.50;;;5.90;;
46322;SDS011;32044;52.386;13.278;2022-07-22T08:05:58;7.13;;;5.95;;
46322;SDS011;32044;52.386;13.278;2022-07-22T08:08:24;5.97;;;5.13;;
46322;SDS011;32044;52.386;13.278;2022-07-22T08:10:50;6.40;;;5.45;;
46322;SDS011;32044;52.386;13.278;2022-07-22T08:13:15;6.05;;;5.45;;
46322;SDS011;32044;52.386;13.278;2022-07-22T08:15:40;6.22;;;5.63;;
46322;SDS011;32044;52.386;13.278;2022-07-22T08:18:06;7.93;;;6.17;;
46322;SDS011;32044;52.386;13.278;2022-07-22T08:20:32;6.80;;;5.85;;
46322;SDS011;32044;52.386;13.278;2022-07-22T08:22:57;6.63;;;6.03;;
46322;SDS011;32044;52.386;13.278;2022-07-22T08:25:23;5.15;;;4.65;;
46322;SDS011;32044;52.386;13.278;2022-07-22T08:27:48;7.38;;;4.95;;
46322;SDS011;32044;52.386;13.278;2022-07-22T08:30:14;6.45;;;5.85;;
46322;SDS011;32044;52.386;13.278;2022-07-22T08:32:40;7.53;;;5.68;;
46322;SDS011;32044;52.386;13.278;2022-07-22T08:35:06;5.97;;;5.37;;
46322;SDS011;32044;52.386;13.278;2022-07-22T08:37:31;6.15;;;5.53;;
46322;SDS011;32044;52.386;13.278;2022-07-22T08:39:57;5.78;;;5.28;;
46322;SDS011;32044;52.386;13.278;2022-07-22T08:42:23;6.22;;;4.97;;
46322;SDS011;32044;52.386;13.278;2022-07-22T08:44:49;6.25;;;4.80;;
46322;SDS011;32044;52.386;13.278;2022-07-22T08:47:15;9.02;;;4.80;;
46322;SDS011;32044;52.386;13.278;2022-07-22T08:49:40;5.72;;;5.13;;
46322;SDS011;32044;52.386;13.278;2022-07-22T08:52:06;5.38;;;4.72;;
46322;SDS011;32044;52.386;13.278;2022-07-22T08:54:31;7.50;;;4.28;;
46322;SDS011;32044;52.386;13.278;2022-07-22T08:56:56;4.80;;;3.70;;
46322;SDS011;32044;52.386;13.278;2022-07-22T08:59:21;4.53;;;4.20;;
46322;SDS011;32044;52.386;13.278;2022-07-22T09:04:32;7.03;;;4.10;;
46322;SDS011;32044;52.386;13.278;2022-07-22T09:07:22;4.25;;;3.90;;
46322;SDS011;32044;52.386;13.278;2022-07-22T09:09:48;7.40;;;4.40;;
46322;SDS011;32044;52.386;13.278;2022-07-22T09:12:14;9.38;;;4.15;;
46322;SDS011;32044;52.386;13.278;2022-07-22T09:14:43;5.10;;;4.60;;
46322;SDS011;32044;52.386;13.278;2022-07-22T09:17:22;4.72;;;4.10;;
46322;SDS011;32044;52.386;13.278;2022-07-22T09:19:49;6.47;;;4.15;;
46322;SDS011;32044;52.386;13.278;2022-07-22T09:22:14;5.32;;;4.15;;
46322;SDS011;32044;52.386;13.278;2022-07-22T09:24:55;4.77;;;4.37;;
46322;SDS011;32044;52.386;13.278;2022-07-22T09:27:24;5.55;;;4.95;;
46322;SDS011;32044;52.386;13.278;2022-07-22T09:29:50;6.38;;;5.15;;
46322;SDS011;32044;52.386;13.278;2022-07-22T09:32:15;6.35;;;5.28;;
46322;SDS011;32044;52.386;13.278;2022-07-22T09:34:40;5.57;;;4.70;;
46322;SDS011;32044;52.386;13.278;2022-07-22T09:37:06;4.50;;;4.10;;
46322;SDS011;32044;52.386;13.278;2022-07-22T09:39:32;8.50;;;4.63;;
46322;SDS011;32044;52.386;13.278;2022-07-22T09:41:58;4.63;;;4.22;;
46322;SDS011;32044;52.386;13.278;2022-07-22T09:44:24;4.38;;;3.83;;
46322;SDS011;32044;52.386;13.278;2022-07-22T09:46:50;4.05;;;3.75;;
46322;SDS011;32044;52.386;13.278;2022-07-22T09:49:34;4.30;;;3.90;;
46322;SDS011;32044;52.386;13.278;2022-07-22T09:52:02;4.25;;;3.85;;
46322;SDS011;32044;52.386;13.278;2022-07-22T09:54:28;5.25;;;3.92;;
46322;SDS011;32044;52.386;13.278;2022-07-22T09:56:55;4.53;;;4.00;;
46322;SDS011;32044;52.386;13.278;2022-07-22T09:59:21;5.18;;;3.80;;
46322;SDS011;32044;52.386;13.278;2022-07-22T10:01:46;4.13;;;3.63;;
46322;SDS011;32044;52.386;13.278;2022-07-22T10:04:12;4.18;;;3.78;;
46322;SDS011;32044;52.386;13.278;2022-07-22T10:06:37;4.55;;;4.15;;
46322;SDS011;32044;52.386;13.278;2022-07-22T10:09:03;4.03;;;3.63;;
46322;SDS011;32044;52.386;13.278;2022-07-22T10:11:30;3.75;;;3.45;;
46322;SDS011;32044;52.386;13.278;2022-07-22T10:13:56;3.65;;;3.35;;
46322;SDS011;32044;52.386;13.278;2022-07-22T10:16:21;5.28;;;3.53;;
46322;SDS011;32044;52.386;13.278;2022-07-22T10:18:47;3.38;;;3.08;;
46322;SDS011;32044;52.386;13.278;2022-07-22T10:21:12;4.03;;;3.35;;
46322;SDS011;32044;52.386;13.278;2022-07-22T10:26:47;3.47;;;3.20;;
46322;SDS011;32044;52.386;13.278;2022-07-22T10:29:28;3.30;;;3.00;;
46322;SDS011;32044;52.386;13.278;2022-07-22T10:35:27;3.60;;;3.30;;
46322;SDS011;32044;52.386;13.278;2022-07-22T10:45:25;3.15;;;2.95;;
46322;SDS011;32044;52.386;13.278;2022-07-22T10:48:15;3.67;;;3.25;;
46322;SDS011;32044;52.386;13.278;2022-07-22T10:50:43;3.20;;;3.00;;
46322;SDS011;32044;52.386;13.278;2022-07-22T10:53:11;3.80;;;3.40;;
46322;SDS011;32044;52.386;13.278;2022-07-22T10:55:38;3.58;;;2.83;;
46322;SDS011;32044;52.386;13.278;2022-07-22T10:58:38;5.55;;;3.05;;
46322;SDS011;32044;52.386;13.278;2022-07-22T11:00:59;3.47;;;3.15;;
46322;SDS011;32044;52.386;13.278;2022-07-22T11:03:26;4.72;;;3.90;;
46322;SDS011;32044;52.386;13.278;2022-07-22T11:05:54;3.65;;;3.33;;
46322;SDS011;32044;52.386;13.278;2022-07-22T11:08:19;4.18;;;3.60;;
46322;SDS011;32044;52.386;13.278;2022-07-22T11:10:47;6.03;;;3.45;;
46322;SDS011;32044;52.386;13.278;2022-07-22T11:13:32;3.70;;;3.40;;
46322;SDS011;32044;52.386;13.278;2022-07-22T11:18:46;3.95;;;3.58;;
46322;SDS011;32044;52.386;13.278;2022-07-22T11:21:26;3.35;;;3.05;;
46322;SDS011;32044;52.386;13.278;2022-07-22T11:23:53;4.60;;;3.95;;
46322;SDS011;32044;52.386;13.278;2022-07-22T11:26:39;4.03;;;3.63;;
46322;SDS011;32044;52.386;13.278;2022-07-22T11:29:05;3.15;;;2.90;;
46322;SDS011;32044;52.386;13.278;2022-07-22T11:31:31;3.10;;;2.80;;
46322;SDS011;32044;52.386;13.278;2022-07-22T11:34:04;3.28;;;3.00;;
46322;SDS011;32044;52.386;13.278;2022-07-22T11:36:34;2.60;;;2.40;;
46322;SDS011;32044;52.386;13.278;2022-07-22T11:39:00;3.22;;;3.00;;
46322;SDS011;32044;52.386;13.278;2022-07-22T11:41:27;3.10;;;2.90;;
46322;SDS011;32044;52.386;13.278;2022-07-22T11:43:54;3.33;;;2.65;;
46322;SDS011;32044;52.386;13.278;2022-07-22T11:46:19;3.13;;;2.83;;
46322;SDS011;32044;52.386;13.278;2022-07-22T11:48:44;3.13;;;2.90;;
46322;SDS011;32044;52.386;13.278;2022-07-22T11:51:11;2.90;;;2.70;;
46322;SDS011;32044;52.386;13.278;2022-07-22T11:53:40;6.20;;;2.83;;
46322;SDS011;32044;52.386;13.278;2022-07-22T11:56:07;3.80;;;3.40;;
46322;SDS011;32044;52.386;13.278;2022-07-22T11:58:35;2.83;;;2.60;;
46322;SDS011;32044;52.386;13.278;2022-07-22T12:01:00;3.67;;;2.70;;
46322;SDS011;32044;52.386;13.278;2022-07-22T12:03:26;3.33;;;2.67;;
46322;SDS011;32044;52.386;13.278;2022-07-22T12:05:51;3.22;;;2.85;;
46322;SDS011;32044;52.386;13.278;2022-07-22T12:08:17;4.38;;;2.67;;
46322;SDS011;32044;52.386;13.278;2022-07-22T12:10:42;4.00;;;3.00;;
46322;SDS011;32044;52.386;13.278;2022-07-22T12:13:10;2.97;;;2.78;;
46322;SDS011;32044;52.386;13.278;2022-07-22T12:15:36;2.40;;;2.15;;
46322;SDS011;32044;52.386;13.278;2022-07-22T12:18:21;2.35;;;2.20;;
46322;SDS011;32044;52.386;13.278;2022-07-22T12:20:47;2.40;;;2.20;;
46322;SDS011;32044;52.386;13.278;2022-07-22T12:23:13;2.08;;;1.90;;
46322;SDS011;32044;52.386;13.278;2022-07-22T12:25:51;1.90;;;1.80;;
46322;SDS011;32044;52.386;13.278;2022-07-22T12:28:19;1.95;;;1.83;;
46322;SDS011;32044;52.386;13.278;2022-07-22T12:30:44;1.60;;;1.50;;
46322;SDS011;32044;52.386;13.278;2022-07-22T12:33:14;1.90;;;1.80;;
46322;SDS011;32044;52.386;13.278;2022-07-22T12:35:40;3.65;;;1.80;;
46322;SDS011;32044;52.386;13.278;2022-07-22T12:38:07;2.50;;;1.73;;
46322;SDS011;32044;52.386;13.278;2022-07-22T12:40:33;1.58;;;1.48;;
46322;SDS011;32044;52.386;13.278;2022-07-22T12:43:03;3.10;;;1.75;;
46322;SDS011;32044;52.386;13.278;2022-07-22T12:45:30;5.82;;;1.65;;
46322;SDS011;32044;52.386;13.278;2022-07-22T12:48:00;2.85;;;2.10;;
46322;SDS011;32044;52.386;13.278;2022-07-22T12:50:35;2.30;;;2.10;;
46322;SDS011;32044;52.386;13.278;2022-07-22T12:53:03;3.60;;;1.95;;
46322;SDS011;32044;52.386;13.278;2022-07-22T12:55:35;1.80;;;1.70;;
46322;SDS011;32044;52.386;13.278;2022-07-22T12:58:02;5.38;;;1.70;;
46322;SDS011;32044;52.386;13.278;2022-07-22T13:00:29;2.38;;;1.75;;
46322;SDS011;32044;52.386;13.278;2022-07-22T13:02:56;2.08;;;1.95;;
46322;SDS011;32044;52.386;13.278;2022-07-22T13:05:22;1.95;;;1.85;;
46322;SDS011;32044;52.386;13.278;2022-07-22T13:07:48;1.85;;;1.75;;
46322;SDS011;32044;52.386;13.278;2022-07-22T13:10:13;2.00;;;1.90;;
46322;SDS011;32044;52.386;13.278;2022-07-22T13:12:39;1.80;;;1.70;;
46322;SDS011;32044;52.386;13.278;2022-07-22T13:15:05;3.53;;;1.65;;
46322;SDS011;32044;52.386;13.278;2022-07-22T13:17:31;2.90;;;1.70;;
46322;SDS011;32044;52.386;13.278;2022-07-22T13:19:56;1.98;;;1.80;;
46322;SDS011;32044;52.386;13.278;2022-07-22T13:22:21;2.65;;;1.95;;
46322;SDS011;32044;52.386;13.278;2022-07-22T13:24:47;1.80;;;1.70;;
46322;SDS011;32044;52.386;13.278;2022-07-22T13:27:12;2.60;;;1.90;;
46322;SDS011;32044;52.386;13.278;2022-07-22T13:29:37;1.90;;;1.70;;
46322;SDS011;32044;52.386;13.278;2022-07-22T13:32:03;1.83;;;1.73;;
46322;SDS011;32044;52.386;13.278;2022-07-22T13:34:29;1.77;;;1.60;;
46322;SDS011;32044;52.386;13.278;2022-07-22T13:36:54;1.70;;;1.60;;
46322;SDS011;32044;52.386;13.278;2022-07-22T13:39:19;1.77;;;1.67;;
46322;SDS011;32044;52.386;13.278;2022-07-22T13:41:45;5.45;;;1.70;;
46322;SDS011;32044;52.386;13.278;2022-07-22T13:44:10;2.73;;;1.70;;
46322;SDS011;32044;52.386;13.278;2022-07-22T13:46:36;3.67;;;1.70;;
46322;SDS011;32044;52.386;13.278;2022-07-22T13:49:01;2.05;;;1.85;;
46322;SDS011;32044;52.386;13.278;2022-07-22T13:51:26;2.40;;;1.60;;
46322;SDS011;32044;52.386;13.278;2022-07-22T13:53:52;2.85;;;1.92;;
46322;SDS011;32044;52.386;13.278;2022-07-22T13:56:17;1.90;;;1.80;;
46322;SDS011;32044;52.386;13.278;2022-07-22T13:58:42;1.85;;;1.75;;
46322;SDS011;32044;52.386;13.278;2022-07-22T14:01:08;3.55;;;2.15;;
46322;SDS011;32044;52.386;13.278;2022-07-22T14:03:34;2.40;;;1.80;;
46322;SDS011;32044;52.386;13.278;2022-07-22T14:05:59;3.03;;;1.73;;
46322;SDS011;32044;52.386;13.278;2022-07-22T14:08:25;1.80;;;1.70;;
46322;SDS011;32044;52.386;13.278;2022-07-22T14:10:50;1.83;;;1.45;;
46322;SDS011;32044;52.386;13.278;2022-07-22T14:13:15;2.00;;;1.30;;
46322;SDS011;32044;52.386;13.278;2022-07-22T14:15:41;1.67;;;1.58;;
46322;SDS011;32044;52.386;13.278;2022-07-22T14:18:06;1.70;;;1.60;;
46322;SDS011;32044;52.386;13.278;2022-07-22T14:20:32;5.22;;;1.67;;
46322;SDS011;32044;52.386;13.278;2022-07-22T14:22:58;1.75;;;1.65;;
46322;SDS011;32044;52.386;13.278;2022-07-22T14:25:23;1.50;;;1.40;;
46322;SDS011;32044;52.386;13.278;2022-07-22T14:27:49;2.20;;;1.80;;
46322;SDS011;32044;52.386;13.278;2022-07-22T14:30:14;3.42;;;1.60;;
46322;SDS011;32044;52.386;13.278;2022-07-22T14:32:40;3.10;;;1.75;;
46322;SDS011;32044;52.386;13.278;2022-07-22T14:35:05;1.70;;;1.60;;
46322;SDS011;32044;52.386;13.278;2022-07-22T14:37:31;1.50;;;1.40;;
46322;SDS011;32044;52.386;13.278;2022-07-22T14:39:56;1.55;;;1.45;;
46322;SDS011;32044;52.386;13.278;2022-07-22T14:42:21;2.05;;;1.70;;
46322;SDS011;32044;52.386;13.278;2022-07-22T14:44:47;1.73;;;1.33;;